sensor_id;sensor_type;location;lat;lon;timestamp;pressure;altitude;pressure_sealevel;temperature;humidity
45872;BME280;32333;55.844;-3.210;2023-07-28T00:01:51;98200.80;;;14.71;100.00
45872;BME280;32333;55.844;-3.210;2023-07-28T00:04:18;98201.67;;;14.76;100.00
45872;BME280;32333;55.844;-3.210;2023-07-28T00:06:46;98196.68;;;15.52;100.00
45872;BME280;32333;55.844;-3.210;2023-07-28T00:09:14;98195.96;;;14.86;100.00
45872;BME280;32333;55.844;-3.210;2023-07-28T00:11:41;98192.11;;;14.61;100.00
45872;BME280;32333;55.844;-3.210;2023-07-28T00:14:35;98193.97;;;15.00;100.00
45872;BME280;32333;55.844;-3.210;2023-07-28T00:17:02;98190.95;;;14.79;100.00
45872;BME280;32333;55.844;-3.210;2023-07-28T00:19:30;98188.54;;;13.22;100.00
45872;BME280;32333;55.844;-3.210;2023-07-28T00:21:58;98188.81;;;13.94;100.00
45872;BME280;32333;55.844;-3.210;2023-07-28T00:24:25;98190.65;;;13.87;100.00
45872;BME280;32333;55.844;-3.210;2023-07-28T00:26:53;98189.60;;;14.05;100.00
45872;BME280;32333;55.844;-3.210;2023-07-28T00:29:21;98185.83;;;13.65;100.00
45872;BME280;32333;55.844;-3.210;2023-07-28T00:31:53;98182.56;;;14.47;100.00
45872;BME280;32333;55.844;-3.210;2023-07-28T00:34:21;98184.26;;;14.83;100.00
45872;BME280;32333;55.844;-3.210;2023-07-28T00:36:49;98186.98;;;14.11;100.00
45872;BME280;32333;55.844;-3.210;2023-07-28T00:39:16;98190.44;;;14.11;100.00
45872;BME280;32333;55.844;-3.210;2023-07-28T00:41:45;98188.05;;;14.38;100.00
45872;BME280;32333;55.844;-3.210;2023-07-28T00:44:35;98187.15;;;13.75;100.00
45872;BME280;32333;55.844;-3.210;2023-07-28T00:47:04;98189.79;;;14.30;100.00
45872;BME280;32333;55.844;-3.210;2023-07-28T00:49:32;98189.72;;;14.96;100.00
45872;BME280;32333;55.844;-3.210;2023-07-28T00:51:59;98194.71;;;14.29;100.00
45872;BME280;32333;55.844;-3.210;2023-07-28T00:54:27;98196.65;;;14.10;100.00
45872;BME280;32333;55.844;-3.210;2023-07-28T00:56:55;98195.76;;;13.41;100.00
45872;BME280;32333;55.844;-3.210;2023-07-28T00:59:23;98190.46;;;14.63;100.00
45872;BME280;32333;55.844;-3.210;2023-07-28T01:01:51;98183.63;;;14.29;100.00
45872;BME280;32333;55.844;-3.210;2023-07-28T01:04:19;98185.78;;;14.29;100.00
45872;BME280;32333;55.844;-3.210;2023-07-28T01:06:53;98186.60;;;15.25;100.00
45872;BME280;32333;55.844;-3.210;2023-07-28T01:09:26;98187.40;;;14.92;100.00
45872;BME280;32333;55.844;-3.210;2023-07-28T01:11:54;98187.46;;;14.94;100.00
45872;BME280;32333;55.844;-3.210;2023-07-28T01:14:35;98190.27;;;14.68;100.00
45872;BME280;32333;55.844;-3.210;2023-07-28T01:17:02;98186.59;;;13.56;100.00
45872;BME280;32333;55.844;-3.210;2023-07-28T01:19:31;98191.36;;;14.27;100.00
45872;BME280;32333;55.844;-3.210;2023-07-28T01:22:19;98186.68;;;14.67;100.00
45872;BME280;32333;55.844;-3.210;2023-07-28T01:25:03;98193.45;;;14.22;100.00
45872;BME280;32333;55.844;-3.210;2023-07-28T01:27:33;98195.67;;;13.89;100.00
45872;BME280;32333;55.844;-3.210;2023-07-28T01:30:02;98199.92;;;13.39;100.00
45872;BME280;32333;55.844;-3.210;2023-07-28T01:32:29;98193.83;;;13.80;100.00
45872;BME280;32333;55.844;-3.210;2023-07-28T01:34:58;98191.47;;;14.27;100.00
45872;BME280;32333;55.844;-3.210;2023-07-28T01:37:26;98193.71;;;14.13;100.00
45872;BME280;32333;55.844;-3.210;2023-07-28T01:39:53;98199.25;;;14.07;100.00
45872;BME280;32333;55.844;-3.210;2023-07-28T01:44:35;98200.71;;;14.17;100.00
45872;BME280;32333;55.844;-3.210;2023-07-28T01:47:02;98203.67;;;14.47;100.00
45872;BME280;32333;55.844;-3.210;2023-07-28T01:49:29;98204.52;;;14.11;100.00
45872;BME280;32333;55.844;-3.210;2023-07-28T01:51:58;98204.00;;;14.26;100.00
45872;BME280;32333;55.844;-3.210;2023-07-28T01:54:25;98202.48;;;12.77;100.00
45872;BME280;32333;55.844;-3.210;2023-07-28T01:56:52;98206.35;;;12.27;100.00
45872;BME280;32333;55.844;-3.210;2023-07-28T01:59:20;98205.67;;;13.37;100.00
45872;BME280;32333;55.844;-3.210;2023-07-28T02:01:47;98202.08;;;13.52;100.00
45872;BME280;32333;55.844;-3.210;2023-07-28T02:04:14;98202.19;;;13.02;100.00
45872;BME280;32333;55.844;-3.210;2023-07-28T02:06:41;98202.77;;;13.43;100.00
45872;BME280;32333;55.844;-3.210;2023-07-28T02:09:09;98202.67;;;13.61;100.00
45872;BME280;32333;55.844;-3.210;2023-07-28T02:11:37;98202.17;;;13.57;100.00
45872;BME280;32333;55.844;-3.210;2023-07-28T02:14:35;98203.17;;;14.15;100.00
45872;BME280;32333;55.844;-3.210;2023-07-28T02:17:02;98203.68;;;12.99;100.00
45872;BME280;32333;55.844;-3.210;2023-07-28T02:19:29;98199.44;;;13.88;100.00
45872;BME280;32333;55.844;-3.210;2023-07-28T02:21:58;98198.75;;;14.19;100.00
45872;BME280;32333;55.844;-3.210;2023-07-28T02:24:25;98195.03;;;14.32;100.00
45872;BME280;32333;55.844;-3.210;2023-07-28T02:26:52;98197.39;;;13.88;100.00
45872;BME280;32333;55.844;-3.210;2023-07-28T02:29:19;98194.07;;;14.65;100.00
45872;BME280;32333;55.844;-3.210;2023-07-28T02:31:46;98192.32;;;14.91;100.00
45872;BME280;32333;55.844;-3.210;2023-07-28T02:34:14;98198.95;;;14.04;100.00
45872;BME280;32333;55.844;-3.210;2023-07-28T02:36:41;98198.06;;;14.53;100.00
45872;BME280;32333;55.844;-3.210;2023-07-28T02:39:09;98199.21;;;14.04;100.00
45872;BME280;32333;55.844;-3.210;2023-07-28T02:41:37;98197.72;;;14.08;100.00
45872;BME280;32333;55.844;-3.210;2023-07-28T02:44:35;98195.62;;;14.75;100.00
45872;BME280;32333;55.844;-3.210;2023-07-28T02:47:03;98190.87;;;14.60;100.00
45872;BME280;32333;55.844;-3.210;2023-07-28T02:49:31;98187.31;;;14.50;100.00
45872;BME280;32333;55.844;-3.210;2023-07-28T02:51:59;98185.35;;;14.31;100.00
45872;BME280;32333;55.844;-3.210;2023-07-28T02:54:26;98182.46;;;15.02;100.00
45872;BME280;32333;55.844;-3.210;2023-07-28T02:56:53;98184.17;;;14.80;100.00
45872;BME280;32333;55.844;-3.210;2023-07-28T02:59:22;98187.68;;;15.13;100.00
45872;BME280;32333;55.844;-3.210;2023-07-28T03:01:56;98188.94;;;14.45;100.00
45872;BME280;32333;55.844;-3.210;2023-07-28T03:04:23;98181.03;;;14.94;100.00
45872;BME280;32333;55.844;-3.210;2023-07-28T03:06:50;98177.61;;;14.67;100.00
45872;BME280;32333;55.844;-3.210;2023-07-28T03:09:17;98174.18;;;15.88;100.00
45872;BME280;32333;55.844;-3.210;2023-07-28T03:11:51;98166.82;;;15.07;100.00
45872;BME280;32333;55.844;-3.210;2023-07-28T03:14:35;98168.31;;;15.58;100.00
45872;BME280;32333;55.844;-3.210;2023-07-28T03:17:18;98163.85;;;14.55;100.00
45872;BME280;32333;55.844;-3.210;2023-07-28T03:19:49;98163.48;;;15.21;100.00
45872;BME280;32333;55.844;-3.210;2023-07-28T03:22:17;98158.99;;;15.83;100.00
45872;BME280;32333;55.844;-3.210;2023-07-28T03:24:44;98148.77;;;13.49;100.00
45872;BME280;32333;55.844;-3.210;2023-07-28T03:27:11;98143.62;;;14.62;100.00
45872;BME280;32333;55.844;-3.210;2023-07-28T03:29:39;98144.09;;;14.95;100.00
45872;BME280;32333;55.844;-3.210;2023-07-28T03:32:07;98150.04;;;15.12;100.00
45872;BME280;32333;55.844;-3.210;2023-07-28T03:34:34;98151.84;;;14.61;100.00
45872;BME280;32333;55.844;-3.210;2023-07-28T03:37:02;98154.49;;;12.93;100.00
45872;BME280;32333;55.844;-3.210;2023-07-28T03:39:30;98154.79;;;12.80;100.00
45872;BME280;32333;55.844;-3.210;2023-07-28T03:41:57;98152.94;;;13.00;100.00
45872;BME280;32333;55.844;-3.210;2023-07-28T03:44:35;98151.31;;;14.23;100.00
45872;BME280;32333;55.844;-3.210;2023-07-28T03:47:02;98150.35;;;14.46;100.00
45872;BME280;32333;55.844;-3.210;2023-07-28T03:49:30;98149.96;;;14.55;100.00
45872;BME280;32333;55.844;-3.210;2023-07-28T03:51:58;98154.86;;;13.13;100.00
45872;BME280;32333;55.844;-3.210;2023-07-28T03:54:25;98145.72;;;15.09;100.00
45872;BME280;32333;55.844;-3.210;2023-07-28T03:56:53;98138.00;;;14.32;100.00
45872;BME280;32333;55.844;-3.210;2023-07-28T03:59:21;98134.27;;;13.85;100.00
45872;BME280;32333;55.844;-3.210;2023-07-28T04:01:49;98138.89;;;14.90;100.00
45872;BME280;32333;55.844;-3.210;2023-07-28T04:04:16;98140.00;;;14.23;100.00
45872;BME280;32333;55.844;-3.210;2023-07-28T04:06:45;98134.00;;;14.99;100.00
45872;BME280;32333;55.844;-3.210;2023-07-28T04:09:14;98136.39;;;15.16;100.00
45872;BME280;32333;55.844;-3.210;2023-07-28T04:11:41;98134.14;;;15.18;100.00
45872;BME280;32333;55.844;-3.210;2023-07-28T04:14:35;98135.39;;;14.44;100.00
45872;BME280;32333;55.844;-3.210;2023-07-28T04:17:03;98138.88;;;15.14;100.00
45872;BME280;32333;55.844;-3.210;2023-07-28T04:19:31;98136.44;;;14.90;100.00
45872;BME280;32333;55.844;-3.210;2023-07-28T04:22:00;98138.29;;;14.94;100.00
45872;BME280;32333;55.844;-3.210;2023-07-28T04:24:28;98140.00;;;15.24;100.00
45872;BME280;32333;55.844;-3.210;2023-07-28T04:26:55;98141.48;;;14.83;100.00
45872;BME280;32333;55.844;-3.210;2023-07-28T04:29:22;98141.99;;;14.91;100.00
45872;BME280;32333;55.844;-3.210;2023-07-28T04:31:49;98135.91;;;14.23;100.00
45872;BME280;32333;55.844;-3.210;2023-07-28T04:34:16;98133.83;;;13.39;100.00
45872;BME280;32333;55.844;-3.210;2023-07-28T04:36:45;98136.09;;;14.46;100.00
45872;BME280;32333;55.844;-3.210;2023-07-28T04:39:12;98133.30;;;13.79;100.00
45872;BME280;32333;55.844;-3.210;2023-07-28T04:41:39;98132.64;;;15.21;100.00
45872;BME280;32333;55.844;-3.210;2023-07-28T04:44:37;98135.71;;;13.83;100.00
45872;BME280;32333;55.844;-3.210;2023-07-28T04:47:04;98134.07;;;14.08;100.00
45872;BME280;32333;55.844;-3.210;2023-07-28T04:49:32;98130.42;;;14.06;100.00
45872;BME280;32333;55.844;-3.210;2023-07-28T04:51:59;98131.56;;;14.62;100.00
45872;BME280;32333;55.844;-3.210;2023-07-28T04:54:26;98132.10;;;13.78;100.00
45872;BME280;32333;55.844;-3.210;2023-07-28T04:56:53;98125.59;;;15.49;100.00
45872;BME280;32333;55.844;-3.210;2023-07-28T04:59:22;98125.44;;;13.52;100.00
45872;BME280;32333;55.844;-3.210;2023-07-28T05:01:49;98124.20;;;13.88;100.00
45872;BME280;32333;55.844;-3.210;2023-07-28T05:04:16;98125.86;;;14.53;100.00
45872;BME280;32333;55.844;-3.210;2023-07-28T05:06:46;98129.87;;;14.86;100.00
45872;BME280;32333;55.844;-3.210;2023-07-28T05:09:13;98127.64;;;14.97;100.00
45872;BME280;32333;55.844;-3.210;2023-07-28T05:11:40;98129.55;;;14.77;100.00
45872;BME280;32333;55.844;-3.210;2023-07-28T05:14:36;98132.73;;;14.17;100.00
45872;BME280;32333;55.844;-3.210;2023-07-28T05:17:04;98136.12;;;14.72;100.00
45872;BME280;32333;55.844;-3.210;2023-07-28T05:19:31;98137.47;;;14.91;100.00
45872;BME280;32333;55.844;-3.210;2023-07-28T05:21:59;98142.98;;;15.72;100.00
45872;BME280;32333;55.844;-3.210;2023-07-28T05:24:26;98139.46;;;15.03;100.00
45872;BME280;32333;55.844;-3.210;2023-07-28T05:26:54;98148.62;;;14.63;100.00
45872;BME280;32333;55.844;-3.210;2023-07-28T05:29:22;98142.23;;;14.87;100.00
45872;BME280;32333;55.844;-3.210;2023-07-28T05:31:49;98139.50;;;14.95;100.00
45872;BME280;32333;55.844;-3.210;2023-07-28T05:34:16;98137.95;;;15.10;100.00
45872;BME280;32333;55.844;-3.210;2023-07-28T05:36:44;98133.01;;;14.75;100.00
45872;BME280;32333;55.844;-3.210;2023-07-28T05:39:13;98131.95;;;13.74;100.00
45872;BME280;32333;55.844;-3.210;2023-07-28T05:41:41;98135.57;;;15.23;100.00
45872;BME280;32333;55.844;-3.210;2023-07-28T05:44:35;98138.32;;;15.12;100.00
45872;BME280;32333;55.844;-3.210;2023-07-28T05:47:02;98139.39;;;14.90;100.00
45872;BME280;32333;55.844;-3.210;2023-07-28T05:49:29;98145.08;;;14.02;100.00
45872;BME280;32333;55.844;-3.210;2023-07-28T05:51:58;98142.88;;;15.87;100.00
45872;BME280;32333;55.844;-3.210;2023-07-28T05:54:26;98142.87;;;13.28;100.00
45872;BME280;32333;55.844;-3.210;2023-07-28T05:56:54;98144.69;;;14.72;100.00
45872;BME280;32333;55.844;-3.210;2023-07-28T05:59:22;98139.35;;;16.08;100.00
45872;BME280;32333;55.844;-3.210;2023-07-28T06:01:49;98140.44;;;15.75;100.00
45872;BME280;32333;55.844;-3.210;2023-07-28T06:04:16;98145.08;;;15.59;100.00
45872;BME280;32333;55.844;-3.210;2023-07-28T06:06:44;98140.33;;;15.81;100.00
45872;BME280;32333;55.844;-3.210;2023-07-28T06:09:12;98135.36;;;16.14;100.00
45872;BME280;32333;55.844;-3.210;2023-07-28T06:11:40;98133.66;;;16.83;100.00
45872;BME280;32333;55.844;-3.210;2023-07-28T06:14:35;98136.32;;;17.14;100.00
45872;BME280;32333;55.844;-3.210;2023-07-28T06:17:04;98133.04;;;15.38;100.00
45872;BME280;32333;55.844;-3.210;2023-07-28T06:19:31;98132.86;;;15.66;100.00
45872;BME280;32333;55.844;-3.210;2023-07-28T06:21:58;98136.91;;;14.86;100.00
45872;BME280;32333;55.844;-3.210;2023-07-28T06:24:25;98129.42;;;16.18;100.00
45872;BME280;32333;55.844;-3.210;2023-07-28T06:26:53;98128.79;;;15.88;100.00
45872;BME280;32333;55.844;-3.210;2023-07-28T06:29:21;98128.23;;;16.40;100.00
45872;BME280;32333;55.844;-3.210;2023-07-28T06:31:48;98128.46;;;16.54;100.00
45872;BME280;32333;55.844;-3.210;2023-07-28T06:34:16;98130.56;;;16.73;100.00
45872;BME280;32333;55.844;-3.210;2023-07-28T06:36:44;98125.58;;;17.44;100.00
45872;BME280;32333;55.844;-3.210;2023-07-28T06:39:11;98120.36;;;15.64;100.00
45872;BME280;32333;55.844;-3.210;2023-07-28T06:41:39;98122.13;;;15.99;100.00
45872;BME280;32333;55.844;-3.210;2023-07-28T06:44:35;98121.80;;;17.60;100.00
45872;BME280;32333;55.844;-3.210;2023-07-28T06:47:02;98121.70;;;17.06;100.00
45872;BME280;32333;55.844;-3.210;2023-07-28T06:49:31;98119.86;;;16.07;100.00
45872;BME280;32333;55.844;-3.210;2023-07-28T06:51:58;98120.75;;;16.07;100.00
45872;BME280;32333;55.844;-3.210;2023-07-28T06:54:25;98123.11;;;16.28;100.00
45872;BME280;32333;55.844;-3.210;2023-07-28T06:56:53;98123.87;;;16.59;100.00
45872;BME280;32333;55.844;-3.210;2023-07-28T06:59:25;98123.59;;;17.51;100.00
45872;BME280;32333;55.844;-3.210;2023-07-28T07:01:52;98120.60;;;17.55;100.00
45872;BME280;32333;55.844;-3.210;2023-07-28T07:04:20;98121.25;;;17.56;100.00
45872;BME280;32333;55.844;-3.210;2023-07-28T07:06:49;98118.46;;;17.59;100.00
45872;BME280;32333;55.844;-3.210;2023-07-28T07:09:16;98122.73;;;16.74;100.00
45872;BME280;32333;55.844;-3.210;2023-07-28T07:11:45;98119.77;;;17.27;100.00
45872;BME280;32333;55.844;-3.210;2023-07-28T07:14:50;98126.22;;;16.23;100.00
45872;BME280;32333;55.844;-3.210;2023-07-28T07:17:19;98127.25;;;15.80;100.00
45872;BME280;32333;55.844;-3.210;2023-07-28T07:19:48;98124.98;;;16.94;100.00
45872;BME280;32333;55.844;-3.210;2023-07-28T07:22:17;98126.88;;;16.06;100.00
45872;BME280;32333;55.844;-3.210;2023-07-28T07:24:45;98128.17;;;17.41;100.00
45872;BME280;32333;55.844;-3.210;2023-07-28T07:27:12;98128.16;;;16.74;100.00
45872;BME280;32333;55.844;-3.210;2023-07-28T07:29:41;98132.70;;;17.14;100.00
45872;BME280;32333;55.844;-3.210;2023-07-28T07:32:08;98129.16;;;18.19;100.00
45872;BME280;32333;55.844;-3.210;2023-07-28T07:34:36;98136.31;;;16.17;100.00
45872;BME280;32333;55.844;-3.210;2023-07-28T07:37:06;98137.70;;;17.06;100.00
45872;BME280;32333;55.844;-3.210;2023-07-28T07:39:33;98136.22;;;17.40;100.00
45872;BME280;32333;55.844;-3.210;2023-07-28T07:44:37;98133.34;;;17.88;100.00
45872;BME280;32333;55.844;-3.210;2023-07-28T07:47:13;98131.18;;;17.73;100.00
45872;BME280;32333;55.844;-3.210;2023-07-28T07:49:41;98131.68;;;18.97;100.00
45872;BME280;32333;55.844;-3.210;2023-07-28T07:52:09;98135.66;;;18.03;100.00
45872;BME280;32333;55.844;-3.210;2023-07-28T07:54:38;98133.52;;;17.94;100.00
45872;BME280;32333;55.844;-3.210;2023-07-28T07:57:07;98132.83;;;18.70;100.00
45872;BME280;32333;55.844;-3.210;2023-07-28T07:59:36;98132.53;;;17.77;100.00
45872;BME280;32333;55.844;-3.210;2023-07-28T08:02:08;98131.06;;;18.78;100.00
45872;BME280;32333;55.844;-3.210;2023-07-28T08:04:37;98133.89;;;19.81;100.00
45872;BME280;32333;55.844;-3.210;2023-07-28T08:07:06;98137.80;;;19.44;100.00
45872;BME280;32333;55.844;-3.210;2023-07-28T08:09:34;98133.03;;;20.76;100.00
45872;BME280;32333;55.844;-3.210;2023-07-28T08:14:35;98139.74;;;19.88;100.00
45872;BME280;32333;55.844;-3.210;2023-07-28T08:17:04;98134.76;;;20.32;100.00
45872;BME280;32333;55.844;-3.210;2023-07-28T08:19:33;98131.60;;;19.03;100.00
45872;BME280;32333;55.844;-3.210;2023-07-28T08:22:02;98130.04;;;18.56;100.00
45872;BME280;32333;55.844;-3.210;2023-07-28T08:24:31;98131.23;;;19.00;100.00
45872;BME280;32333;55.844;-3.210;2023-07-28T08:27:00;98129.66;;;19.01;100.00
45872;BME280;32333;55.844;-3.210;2023-07-28T08:29:28;98130.45;;;19.72;100.00
45872;BME280;32333;55.844;-3.210;2023-07-28T08:31:55;98126.83;;;19.89;100.00
45872;BME280;32333;55.844;-3.210;2023-07-28T08:34:23;98127.73;;;19.52;100.00
45872;BME280;32333;55.844;-3.210;2023-07-28T08:36:51;98123.14;;;19.67;100.00
45872;BME280;32333;55.844;-3.210;2023-07-28T08:39:19;98124.99;;;19.48;100.00
45872;BME280;32333;55.844;-3.210;2023-07-28T08:41:46;98125.75;;;19.20;100.00
45872;BME280;32333;55.844;-3.210;2023-07-28T08:44:36;98124.89;;;19.59;100.00
45872;BME280;32333;55.844;-3.210;2023-07-28T08:47:04;98125.72;;;19.65;100.00
45872;BME280;32333;55.844;-3.210;2023-07-28T08:49:33;98119.16;;;20.53;100.00
45872;BME280;32333;55.844;-3.210;2023-07-28T08:52:02;98123.91;;;19.29;100.00
45872;BME280;32333;55.844;-3.210;2023-07-28T08:54:32;98124.70;;;19.13;100.00
45872;BME280;32333;55.844;-3.210;2023-07-28T08:56:59;98124.45;;;19.10;100.00
45872;BME280;32333;55.844;-3.210;2023-07-28T08:59:29;98130.46;;;19.99;100.00
45872;BME280;32333;55.844;-3.210;2023-07-28T09:01:59;98130.93;;;20.06;100.00
45872;BME280;32333;55.844;-3.210;2023-07-28T09:04:28;98119.88;;;19.84;100.00
45872;BME280;32333;55.844;-3.210;2023-07-28T09:06:56;98127.61;;;19.57;100.00
45872;BME280;32333;55.844;-3.210;2023-07-28T09:09:25;98129.20;;;20.15;100.00
45872;BME280;32333;55.844;-3.210;2023-07-28T09:12:00;98134.73;;;19.85;100.00
45872;BME280;32333;55.844;-3.210;2023-07-28T09:14:36;98137.21;;;19.99;100.00
45872;BME280;32333;55.844;-3.210;2023-07-28T09:17:08;98138.39;;;19.27;100.00
45872;BME280;32333;55.844;-3.210;2023-07-28T09:19:53;98132.24;;;20.33;100.00
45872;BME280;32333;55.844;-3.210;2023-07-28T09:22:21;98137.99;;;19.74;100.00
45872;BME280;32333;55.844;-3.210;2023-07-28T09:27:01;98137.29;;;18.90;100.00
45872;BME280;32333;55.844;-3.210;2023-07-28T09:29:59;98138.07;;;19.89;100.00
45872;BME280;32333;55.844;-3.210;2023-07-28T09:33:26;98133.73;;;19.25;100.00
45872;BME280;32333;55.844;-3.210;2023-07-28T09:36:09;98130.91;;;20.45;100.00
45872;BME280;32333;55.844;-3.210;2023-07-28T09:38:38;98125.28;;;20.28;100.00
45872;BME280;32333;55.844;-3.210;2023-07-28T09:41:06;98126.71;;;19.82;100.00
45872;BME280;32333;55.844;-3.210;2023-07-28T09:44:35;98126.38;;;19.37;100.00
45872;BME280;32333;55.844;-3.210;2023-07-28T09:47:04;98119.85;;;19.27;100.00
45872;BME280;32333;55.844;-3.210;2023-07-28T09:49:36;98120.89;;;19.62;100.00
45872;BME280;32333;55.844;-3.210;2023-07-28T09:52:06;98116.80;;;20.12;100.00
45872;BME280;32333;55.844;-3.210;2023-07-28T09:54:39;98120.78;;;20.73;100.00
45872;BME280;32333;55.844;-3.210;2023-07-28T09:57:12;98121.14;;;20.71;100.00
45872;BME280;32333;55.844;-3.210;2023-07-28T09:59:41;98118.80;;;22.08;100.00
45872;BME280;32333;55.844;-3.210;2023-07-28T10:02:10;98116.89;;;21.85;100.00
45872;BME280;32333;55.844;-3.210;2023-07-28T10:04:39;98113.28;;;21.40;100.00
45872;BME280;32333;55.844;-3.210;2023-07-28T10:07:07;98118.57;;;20.51;100.00
45872;BME280;32333;55.844;-3.210;2023-07-28T10:09:37;98116.69;;;19.91;100.00
45872;BME280;32333;55.844;-3.210;2023-07-28T10:14:36;98112.57;;;21.71;100.00
45872;BME280;32333;55.844;-3.210;2023-07-28T10:17:05;98111.14;;;21.87;100.00
45872;BME280;32333;55.844;-3.210;2023-07-28T10:19:50;98111.24;;;21.10;100.00
45872;BME280;32333;55.844;-3.210;2023-07-28T10:22:18;98106.90;;;20.79;100.00
45872;BME280;32333;55.844;-3.210;2023-07-28T10:24:54;98109.66;;;21.11;100.00
45872;BME280;32333;55.844;-3.210;2023-07-28T10:27:30;98103.39;;;20.84;100.00
45872;BME280;32333;55.844;-3.210;2023-07-28T10:30:00;98105.75;;;21.45;100.00
45872;BME280;32333;55.844;-3.210;2023-07-28T10:32:28;98109.13;;;21.05;100.00
45872;BME280;32333;55.844;-3.210;2023-07-28T10:34:59;98104.83;;;21.16;100.00
45872;BME280;32333;55.844;-3.210;2023-07-28T10:37:27;98109.03;;;20.87;100.00
45872;BME280;32333;55.844;-3.210;2023-07-28T10:40:30;98108.61;;;22.49;100.00
45872;BME280;32333;55.844;-3.210;2023-07-28T10:44:37;98102.90;;;21.93;100.00
45872;BME280;32333;55.844;-3.210;2023-07-28T10:47:08;98103.36;;;21.66;100.00
45872;BME280;32333;55.844;-3.210;2023-07-28T10:49:36;98102.51;;;21.01;100.00
45872;BME280;32333;55.844;-3.210;2023-07-28T10:52:04;98105.38;;;21.22;100.00
45872;BME280;32333;55.844;-3.210;2023-07-28T10:54:33;98097.24;;;20.64;100.00
45872;BME280;32333;55.844;-3.210;2023-07-28T10:57:03;98104.51;;;19.71;100.00
45872;BME280;32333;55.844;-3.210;2023-07-28T10:59:30;98093.77;;;20.33;100.00
45872;BME280;32333;55.844;-3.210;2023-07-28T11:01:58;98097.05;;;20.58;100.00
45872;BME280;32333;55.844;-3.210;2023-07-28T11:04:25;98090.68;;;21.01;100.00
45872;BME280;32333;55.844;-3.210;2023-07-28T11:06:53;98098.67;;;20.18;100.00
45872;BME280;32333;55.844;-3.210;2023-07-28T11:09:23;98090.50;;;20.23;100.00
45872;BME280;32333;55.844;-3.210;2023-07-28T11:11:52;98091.52;;;19.94;100.00
45872;BME280;32333;55.844;-3.210;2023-07-28T11:14:35;98093.85;;;20.63;100.00
45872;BME280;32333;55.844;-3.210;2023-07-28T11:17:05;98103.56;;;19.44;100.00
45872;BME280;32333;55.844;-3.210;2023-07-28T11:19:34;98094.16;;;20.44;100.00
45872;BME280;32333;55.844;-3.210;2023-07-28T11:22:01;98099.35;;;19.80;100.00
45872;BME280;32333;55.844;-3.210;2023-07-28T11:24:29;98101.01;;;19.63;100.00
45872;BME280;32333;55.844;-3.210;2023-07-28T11:26:57;98095.12;;;19.92;100.00
45872;BME280;32333;55.844;-3.210;2023-07-28T11:29:27;98088.93;;;20.29;100.00
45872;BME280;32333;55.844;-3.210;2023-07-28T11:31:56;98085.65;;;20.77;100.00
45872;BME280;32333;55.844;-3.210;2023-07-28T11:34:24;98093.73;;;19.83;100.00
45872;BME280;32333;55.844;-3.210;2023-07-28T11:36:52;98086.64;;;20.91;100.00
45872;BME280;32333;55.844;-3.210;2023-07-28T11:39:21;98084.58;;;20.60;100.00
45872;BME280;32333;55.844;-3.210;2023-07-28T11:41:50;98083.46;;;20.48;100.00
45872;BME280;32333;55.844;-3.210;2023-07-28T11:44:36;98086.62;;;19.92;100.00
45872;BME280;32333;55.844;-3.210;2023-07-28T11:47:05;98084.93;;;20.64;100.00
45872;BME280;32333;55.844;-3.210;2023-07-28T11:49:34;98085.19;;;21.06;100.00
45872;BME280;32333;55.844;-3.210;2023-07-28T11:52:12;98084.41;;;20.42;100.00
45872;BME280;32333;55.844;-3.210;2023-07-28T11:54:39;98078.00;;;20.77;100.00
45872;BME280;32333;55.844;-3.210;2023-07-28T11:57:07;98075.97;;;20.59;100.00
45872;BME280;32333;55.844;-3.210;2023-07-28T11:59:37;98079.44;;;20.32;100.00
45872;BME280;32333;55.844;-3.210;2023-07-28T12:02:07;98087.87;;;19.34;100.00
45872;BME280;32333;55.844;-3.210;2023-07-28T12:04:37;98094.97;;;18.56;100.00
45872;BME280;32333;55.844;-3.210;2023-07-28T12:07:06;98091.00;;;19.94;100.00
45872;BME280;32333;55.844;-3.210;2023-07-28T12:09:48;98103.79;;;19.77;100.00
45872;BME280;32333;55.844;-3.210;2023-07-28T12:14:35;98101.73;;;19.16;100.00
45872;BME280;32333;55.844;-3.210;2023-07-28T12:17:03;98107.96;;;19.16;100.00
45872;BME280;32333;55.844;-3.210;2023-07-28T12:19:30;98101.92;;;19.13;100.00
45872;BME280;32333;55.844;-3.210;2023-07-28T12:21:58;98106.10;;;19.25;100.00
45872;BME280;32333;55.844;-3.210;2023-07-28T12:24:26;98109.75;;;17.13;100.00
45872;BME280;32333;55.844;-3.210;2023-07-28T12:26:53;98100.04;;;18.43;100.00
45872;BME280;32333;55.844;-3.210;2023-07-28T12:29:22;98106.70;;;17.32;100.00
45872;BME280;32333;55.844;-3.210;2023-07-28T12:31:50;98104.01;;;17.49;100.00
45872;BME280;32333;55.844;-3.210;2023-07-28T12:34:19;98101.56;;;18.23;100.00
45872;BME280;32333;55.844;-3.210;2023-07-28T12:36:47;98106.95;;;19.26;100.00
45872;BME280;32333;55.844;-3.210;2023-07-28T12:39:14;98113.17;;;18.97;100.00
45872;BME280;32333;55.844;-3.210;2023-07-28T12:41:43;98112.97;;;18.84;100.00
45872;BME280;32333;55.844;-3.210;2023-07-28T12:44:36;98115.86;;;18.89;100.00
45872;BME280;32333;55.844;-3.210;2023-07-28T12:47:04;98112.25;;;19.62;100.00
45872;BME280;32333;55.844;-3.210;2023-07-28T12:49:32;98116.03;;;19.45;100.00
45872;BME280;32333;55.844;-3.210;2023-07-28T12:52:02;98109.03;;;17.48;100.00
45872;BME280;32333;55.844;-3.210;2023-07-28T12:54:32;98110.82;;;18.53;100.00
45872;BME280;32333;55.844;-3.210;2023-07-28T12:57:00;98103.40;;;19.29;100.00
45872;BME280;32333;55.844;-3.210;2023-07-28T12:59:28;98099.25;;;20.87;100.00
45872;BME280;32333;55.844;-3.210;2023-07-28T13:01:55;98095.29;;;19.18;100.00
45872;BME280;32333;55.844;-3.210;2023-07-28T13:04:22;98099.06;;;19.13;100.00
45872;BME280;32333;55.844;-3.210;2023-07-28T13:06:50;98099.00;;;19.61;100.00
45872;BME280;32333;55.844;-3.210;2023-07-28T13:09:18;98098.86;;;19.65;100.00
45872;BME280;32333;55.844;-3.210;2023-07-28T13:11:46;98105.57;;;19.06;100.00
45872;BME280;32333;55.844;-3.210;2023-07-28T13:14:35;98107.51;;;19.99;100.00